Indianapolis, IN

5:49 AM EST on February 12, 2016 (GMT -0500)
Thompson Medows | | Change Station
CLOSE
Current Station
Personal Weather Station
Location: Indianapolis, IN
Elevation: 745 ft
Nearby Weather Stations

Elev 745 ft 39.69 °N, 86.26 °W | Updated 8 minutes ago

Mostly Cloudy
Mostly Cloudy
19.2 °F
Feels Like 19 °F
N
0.0
Wind Variable Wind from ENE

Today
High -- | Low -- °F
--% Chance of Precip.
Yesterday
High -- | Low -- °F
Precip. -- in
Pressure 30.21 in
Visibility 10.0 miles
Clouds Mostly Cloudy 7500 ft
Mostly Cloudy 25000 ft
Windchill 19 °F
Dew Point 13 °F
Humidity 76%
Rainfall 0.00 in
Snow Depth Not available.
7:41 AM 6:17 PM
Waxing Crescent, 19% visible
METAR KIND 120954Z 00000KT 10SM BKN075 BKN250 M06/M13 A3018 RMK AO2 SLP230 T10611128
Pressure 30.21 in
Visibility 10.0 miles
Clouds Mostly Cloudy 7500 ft
Mostly Cloudy 25000 ft
Windchill 19 °F
Dew Point 13 °F
Humidity 76%
Rainfall 0.00 in
Snow Depth Not available.
7:41 AM 6:17 PM
Waxing Crescent, 19% visible
METAR KIND 120954Z 00000KT 10SM BKN075 BKN250 M06/M13 A3018 RMK AO2 SLP230 T10611128

10-Day Weather Forecast

Almanac

Astronomy

Feb. 12, 2016 Rise Set
Actual Time
Civil Twilight
Nautical Twilight
Astronomical Twilight
Moon
Length of Visible Light
Length of Day
Tomorrow will be .
, % of the Moon is Illuminated

Today's Extremes

State Highs State Lows

Community

WunderPhotos

Upload Photos

1,892,289 photos uploaded!

WunderBlog® & News

Nearby

Air Quality

  Air Quality AQ Index Pollutant
Not available.

Snow Depth

Station Depth Elevation

Earthquake Activity

City Distance Mag. Time & Date
Minimum magnitude displayed is 2.5.

Coastal Water Temperatures

Place Temperature

Stations

Nearby Weather Stations

Station Location Temp. Windchill Dew Point Humidity Wind Precip. Elev Updated Type
                   

Watches & Warnings

There are currently no watches in effect.